Time;durP1;ratioP1;P1;durP2;ratioP2;P2;SDS_P1;SDS_P2;PMS_P1;PMS_P2;Temp;Humidity;BMP_temperature;BMP_pressure;BME280_temperature;BME280_humidity;BME280_pressure;Samples;Min_cycle;Max_cycle;Signal;HPM_P1;HPM_P2
2021/04/10 00:00:09;;;;;;;51.00;21.90;;;;;;;4.43;56.15;100099.38;114814;1202;23247;-57
2021/04/10 00:02:58;;;;;;;53.40;22.80;;;;;;;4.39;56.29;100106.97;115075;1202;23096;-57
2021/04/10 00:05:28;;;;;;;56.80;25.63;;;;;;;4.36;56.49;100102.34;115090;1202;23095;-56
2021/04/10 00:07:57;;;;;;;60.50;25.30;;;;;;;4.33;56.56;100103.98;115253;1200;23095;-55
2021/04/10 00:10:28;;;;;;;58.05;26.55;;;;;;;4.30;56.45;100107.65;115165;1202;27434;-56
2021/04/10 00:12:57;;;;;;;60.30;25.70;;;;;;;4.29;56.62;100105.30;115110;1201;23276;-55
2021/04/10 00:15:29;;;;;;;60.30;25.40;;;;;;;4.24;56.53;100103.88;115207;1200;24582;-57
2021/04/10 00:17:58;;;;;;;58.40;26.20;;;;;;;4.22;56.76;100102.77;115132;1202;23150;-54
2021/04/10 00:20:27;;;;;;;52.63;24.03;;;;;;;4.18;56.87;100105.61;115233;1198;23095;-56
2021/04/10 00:22:57;;;;;;;51.10;23.85;;;;;;;4.14;57.00;100106.95;115237;1202;25767;-54
2021/04/10 00:25:25;;;;;;;47.07;22.23;;;;;;;4.10;57.06;100109.80;115165;1202;23103;-53
2021/04/10 00:27:54;;;;;;;51.83;22.20;;;;;;;4.07;57.26;100102.41;114902;1202;23134;-56
2021/04/10 00:30:24;;;;;;;54.63;21.53;;;;;;;4.04;57.31;100098.52;115172;1202;25716;-53
2021/04/10 00:32:52;;;;;;;50.73;21.40;;;;;;;4.01;57.27;100106.91;115431;1202;23095;-56
2021/04/10 00:35:21;;;;;;;49.90;21.20;;;;;;;3.99;57.53;100106.58;115202;1201;23096;-52
2021/04/10 00:37:50;;;;;;;49.25;20.65;;;;;;;3.97;57.42;100100.72;115394;1202;23099;-53
2021/04/10 00:40:19;;;;;;;53.90;20.90;;;;;;;3.94;57.77;100096.84;115268;1202;23548;-53
2021/04/10 00:42:48;;;;;;;54.67;21.67;;;;;;;3.92;57.71;100096.50;115119;1203;23111;-56
2021/04/10 00:45:18;;;;;;;49.50;20.25;;;;;;;3.90;57.77;100095.38;115156;1202;23240;-54
2021/04/10 00:47:46;;;;;;;52.95;22.00;;;;;;;3.88;57.64;100097.80;115167;1200;26166;-54
2021/04/10 00:50:15;;;;;;;56.10;21.55;;;;;;;3.86;57.73;100092.73;115112;1202;23560;-55
2021/04/10 00:52:45;;;;;;;59.60;23.75;;;;;;;3.84;57.87;100095.16;115179;1200;23170;-56
2021/04/10 00:55:14;;;;;;;57.60;22.43;;;;;;;3.82;57.81;100089.30;115063;1202;23178;-57
2021/04/10 00:57:43;;;;;;;57.43;22.73;;;;;;;3.80;57.87;100090.94;115229;1200;23308;-56
2021/04/10 01:00:14;;;;;;;54.90;23.25;;;;;;;3.78;57.72;100088.62;115141;1202;24555;-54
2021/04/10 01:02:43;;;;;;;55.90;20.73;;;;;;;3.76;57.76;100090.26;115004;1202;24895;-58
2021/04/10 01:05:13;;;;;;;59.70;23.30;;;;;;;3.74;57.85;100084.40;115180;1202;23104;-56
2021/04/10 01:07:42;;;;;;;53.15;20.65;;;;;;;3.71;57.89;100080.52;115210;1200;23236;-56
2021/04/10 01:10:14;;;;;;;52.10;20.60;;;;;;;3.68;57.82;100088.91;115213;1202;23237;-55
2021/04/10 01:12:57;;;;;;;49.17;19.87;;;;;;;3.63;58.34;100084.69;115252;1202;23276;-57
2021/04/10 01:15:39;;;;;;;50.37;21.17;;;;;;;3.58;58.49;100082.45;115147;1200;24642;-54
2021/04/10 01:18:14;;;;;;;48.30;20.13;;;;;;;3.55;58.20;100079.79;115173;1203;23133;-57
2021/04/10 01:20:59;;;;;;;48.50;18.60;;;;;;;3.53;58.42;100082.21;115156;1202;23310;-56
2021/04/10 01:24:08;;;;;;;47.75;19.20;;;;;;;3.51;58.63;100082.66;115126;1202;27870;-55
2021/04/10 01:26:54;;;;;;;56.45;21.10;;;;;;;3.48;58.38;100091.79;115068;1202;26037;-58
2021/04/10 01:29:24;;;;;;;55.10;22.03;;;;;;;3.41;58.28;100097.52;115241;1202;27293;-57
2021/04/10 01:31:56;;;;;;;52.87;18.97;;;;;;;3.33;58.41;100087.88;115441;1202;23095;-57
2021/04/10 01:34:30;;;;;;;48.30;21.03;;;;;;;3.29;58.62;100092.67;115135;1200;24600;-56
2021/04/10 01:37:03;;;;;;;52.20;20.70;;;;;;;3.26;58.84;100083.31;115284;1202;23114;-56
2021/04/10 01:39:35;;;;;;;49.70;21.45;;;;;;;3.24;58.88;100087.70;115187;1202;23135;-55
2021/04/10 01:42:06;;;;;;;48.50;20.55;;;;;;;3.21;58.74;100083.81;115103;1199;23126;-56
2021/04/10 01:44:37;;;;;;;50.00;20.00;;;;;;;3.20;58.87;100079.52;115272;1199;26868;-56
2021/04/10 01:47:12;;;;;;;49.15;19.40;;;;;;;3.18;59.06;100081.16;115372;1202;24731;-55
2021/04/10 01:49:42;;;;;;;48.95;18.65;;;;;;;3.15;59.02;100076.49;115225;1198;23095;-56
2021/04/10 01:52:12;;;;;;;46.45;20.30;;;;;;;3.14;58.99;100066.68;115371;1202;23247;-57
2021/04/10 01:54:41;;;;;;;45.70;18.60;;;;;;;3.10;59.22;100066.75;115181;1200;26294;-57
2021/04/10 01:57:11;;;;;;;51.50;20.95;;;;;;;3.08;59.43;100060.89;115187;1200;27239;-53
2021/04/10 01:59:44;;;;;;;47.47;20.07;;;;;;;3.07;59.30;100066.85;115166;1202;23118;-53
2021/04/10 02:02:14;;;;;;;46.50;19.55;;;;;;;3.02;59.34;100064.63;115238;1200;23128;-57
2021/04/10 02:04:46;;;;;;;44.73;20.63;;;;;;;3.00;59.51;100061.53;115165;1200;26201;-56
2021/04/10 02:07:16;;;;;;;52.33;20.80;;;;;;;2.99;59.26;100062.72;115269;1202;26465;-57
2021/04/10 02:09:48;;;;;;;49.77;21.43;;;;;;;2.96;59.31;100069.88;115353;1200;23315;-55
2021/04/10 02:12:21;;;;;;;49.35;21.05;;;;;;;2.91;59.36;100073.16;115277;1199;23125;-56
2021/04/10 02:14:50;;;;;;;55.87;24.20;;;;;;;2.88;59.52;100079.52;115247;1200;26178;-55
2021/04/10 02:17:20;;;;;;;55.08;21.80;;;;;;;2.84;59.41;100076.08;115161;1202;27341;-55
2021/04/10 02:19:51;;;;;;;53.65;22.30;;;;;;;2.81;59.49;100076.95;115192;1199;23118;-55
2021/04/10 02:22:21;;;;;;;45.93;22.47;;;;;;;2.78;59.81;100075.05;115219;1200;26087;-55
2021/04/10 02:24:51;;;;;;;51.50;21.25;;;;;;;2.74;59.61;100079.09;115131;1202;23096;-54
2021/04/10 02:27:20;;;;;;;45.30;19.30;;;;;;;2.72;59.65;100079.52;115073;1202;23095;-55
2021/04/10 02:29:48;;;;;;;44.53;19.43;;;;;;;2.69;59.91;100066.59;115211;1200;23130;-55
2021/04/10 02:32:23;;;;;;;52.10;20.83;;;;;;;2.67;59.95;100057.97;115078;1202;23119;-57
2021/04/10 02:35:00;;;;;;;52.23;20.27;;;;;;;2.66;59.94;100063.92;115152;1200;23095;-57
2021/04/10 02:37:30;;;;;;;47.10;19.30;;;;;;;2.61;59.84;100067.21;115066;1202;23111;-55
2021/04/10 02:40:00;;;;;;;54.07;19.60;;;;;;;2.57;60.01;100056.25;115115;1202;23099;-56
2021/04/10 02:42:30;;;;;;;53.10;20.70;;;;;;;2.55;60.20;100057.88;115187;1199;24769;-57
2021/04/10 02:45:04;;;;;;;53.43;20.23;;;;;;;2.51;60.02;100060.72;115071;1202;23244;-56
2021/04/10 02:47:35;;;;;;;47.45;20.10;;;;;;;2.46;60.28;100055.73;115058;1202;23103;-57
2021/04/10 02:50:08;;;;;;;54.17;22.43;;;;;;;2.44;60.45;100067.16;115097;1202;23118;-54
2021/04/10 02:52:41;;;;;;;47.53;20.23;;;;;;;2.40;60.43;100065.72;115254;1199;27692;-57
2021/04/10 02:55:14;;;;;;;46.40;20.30;;;;;;;2.36;60.47;100063.02;115187;1200;25923;-57
2021/04/10 02:57:44;;;;;;;51.85;22.20;;;;;;;2.35;60.30;100067.00;115141;1202;23189;-57
2021/04/10 03:00:18;;;;;;;51.15;22.35;;;;;;;2.31;60.67;100068.27;115144;1202;23240;-57
2021/04/10 03:02:47;;;;;;;49.85;22.55;;;;;;;2.25;60.96;100068.02;115205;1202;23192;-55
2021/04/10 03:05:15;;;;;;;51.37;22.33;;;;;;;2.19;60.82;100068.94;115655;1164;23111;-57
2021/04/10 03:07:46;;;;;;;53.85;22.20;;;;;;;2.16;61.00;100067.02;115252;1202;23117;-57
2021/04/10 03:10:16;;;;;;;55.00;22.20;;;;;;;2.16;60.91;100056.79;115095;1202;28930;-53
2021/04/10 03:12:46;;;;;;;48.00;21.45;;;;;;;2.16;61.00;100056.79;115251;1202;23211;-58
2021/04/10 03:15:17;;;;;;;50.57;23.40;;;;;;;2.13;61.16;100054.88;115212;1202;23123;-57
2021/04/10 03:17:47;;;;;;;48.00;21.60;;;;;;;2.10;61.18;100046.70;115164;1200;23088;-58
2021/04/10 03:20:17;;;;;;;51.03;21.87;;;;;;;2.07;61.03;100042.06;115191;1202;23118;-57
2021/04/10 03:22:48;;;;;;;49.03;21.65;;;;;;;2.09;61.07;100059.69;115258;1202;23237;-54
2021/04/10 03:25:16;;;;;;;;;;;;;;;2.06;61.20;100057.80;115200;1205;23236;-57
2021/04/10 03:27:46;;;;;;;47.05;21.80;;;;;;;2.01;61.37;100060.25;115240;1202;21628;-55
2021/04/10 03:30:17;;;;;;;53.50;20.70;;;;;;;1.96;61.31;100064.30;115374;1202;23103;-54
2021/04/10 03:32:47;;;;;;;52.13;22.03;;;;;;;1.91;61.49;100072.27;115145;1202;23116;-56
2021/04/10 03:35:16;;;;;;;50.75;22.60;;;;;;;1.87;61.69;100066.84;115233;1202;23236;-57
2021/04/10 03:37:46;;;;;;;52.45;22.45;;;;;;;1.87;61.83;100064.09;115270;1202;23260;-56
2021/04/10 03:40:15;;;;;;;51.10;22.80;;;;;;;1.87;61.62;100057.80;115178;1202;26294;-54
2021/04/10 03:42:45;;;;;;;54.50;22.57;;;;;;;1.87;61.80;100055.83;115222;1202;23195;-58
2021/04/10 03:45:16;;;;;;;46.55;21.83;;;;;;;1.87;61.52;100055.05;114980;1202;23568;-57
2021/04/10 03:47:45;;;;;;;54.45;22.05;;;;;;;1.84;61.67;100056.70;115203;1202;23223;-57
2021/04/10 03:50:16;;;;;;;51.50;21.73;;;;;;;1.82;61.84;100055.56;115058;1202;26185;-57
2021/04/10 03:52:44;;;;;;;48.55;20.95;;;;;;;1.79;61.73;100059.94;115179;1202;23093;-56
2021/04/10 03:55:15;;;;;;;47.07;22.63;;;;;;;1.76;62.10;100060.77;115060;1202;23098;-57
2021/04/10 03:57:44;;;;;;;47.38;20.23;;;;;;;1.73;61.85;100061.63;115314;1200;27232;-57
2021/04/10 04:00:15;;;;;;;48.55;20.00;;;;;;;1.71;61.95;100057.74;115297;1202;24590;-56
2021/04/10 04:02:43;;;;;;;46.90;20.00;;;;;;;1.71;62.13;100057.74;115025;1200;27220;-58
2021/04/10 04:05:13;;;;;;;45.33;19.63;;;;;;;1.68;62.20;100058.61;115055;1202;23257;-56
2021/04/10 04:07:41;;;;;;;46.93;20.23;;;;;;;1.64;62.31;100062.19;115271;1200;23101;-58
2021/04/10 04:10:12;;;;;;;48.57;20.03;;;;;;;1.63;62.36;100063.38;115100;1202;23095;-58
2021/04/10 04:12:40;;;;;;;43.00;18.20;;;;;;;1.60;62.75;100069.73;115287;1200;23389;-57
2021/04/10 04:15:10;;;;;;;46.90;19.00;;;;;;;1.55;62.48;100070.22;115167;1200;23104;-57
2021/04/10 04:17:38;;;;;;;48.83;19.30;;;;;;;1.55;62.61;100059.21;115304;1200;23166;-57
2021/04/10 04:20:10;;;;;;;40.90;17.37;;;;;;;1.54;62.52;100065.92;114958;1202;23118;-58
2021/04/10 04:22:39;;;;;;;43.85;19.45;;;;;;;1.55;62.62;100067.47;115232;1202;23111;-58
2021/04/10 04:25:10;;;;;;;59.07;24.77;;;;;;;1.54;62.54;100063.17;115187;1202;23237;-58
2021/04/10 04:27:39;;;;;;;55.20;23.55;;;;;;;1.57;62.44;100067.06;115471;1199;26156;-59
2021/04/10 04:30:10;;;;;;;59.23;25.00;;;;;;;1.57;62.62;100061.56;115113;1202;23126;-57
2021/04/10 04:32:39;;;;;;;62.30;25.40;;;;;;;1.58;62.62;100068.60;115150;1202;27199;-56
2021/04/10 04:35:09;;;;;;;67.00;27.40;;;;;;;1.59;62.76;100065.42;115208;1202;23135;-57
2021/04/10 04:37:40;;;;;;;67.33;29.27;;;;;;;1.61;62.94;100074.03;115222;1202;23140;-56
2021/04/10 04:40:11;;;;;;;73.27;31.20;;;;;;;1.61;63.27;100068.52;115188;1202;23115;-58
2021/04/10 04:42:41;;;;;;;68.60;27.70;;;;;;;1.62;63.34;100064.59;115253;1202;27656;-58
2021/04/10 04:45:11;;;;;;;49.80;23.30;;;;;;;1.62;63.49;100077.56;115198;1202;23126;-57
2021/04/10 04:47:39;;;;;;;51.00;22.55;;;;;;;1.64;63.54;100069.66;115218;1202;27464;-56
2021/04/10 04:50:11;;;;;;;49.87;20.37;;;;;;;1.67;63.56;100062.54;114959;1201;26108;-58
2021/04/10 04:52:39;;;;;;;42.80;18.20;;;;;;;1.68;63.84;100067.61;115095;1199;26047;-55
2021/04/10 04:55:11;;;;;;;47.73;19.23;;;;;;;1.70;63.72;100056.95;115124;1202;23096;-58
2021/04/10 04:57:39;;;;;;;43.00;18.90;;;;;;;1.74;63.81;100063.16;115166;1202;24730;-57
2021/04/10 05:00:10;;;;;;;47.73;18.17;;;;;;;1.76;64.18;100066.27;114761;1202;23096;-58
2021/04/10 05:02:39;;;;;;;50.27;19.70;;;;;;;1.80;64.27;100071.72;115331;1202;27371;-59
2021/04/10 05:05:10;;;;;;;49.40;20.33;;;;;;;1.81;64.52;100082.30;115031;1198;23457;-56
2021/04/10 05:07:38;;;;;;;44.43;19.03;;;;;;;1.83;64.64;100085.41;114956;1202;23212;-56
2021/04/10 05:10:10;;;;;;;46.85;19.45;;;;;;;1.88;64.04;100084.14;115099;1202;23115;-57
2021/04/10 05:12:39;;;;;;;42.40;17.60;;;;;;;1.93;64.43;100089.92;115142;1202;23099;-58
2021/04/10 05:15:10;;;;;;;47.45;18.80;;;;;;;2.00;64.60;100100.02;115134;1202;23095;-58
2021/04/10 05:17:38;;;;;;;47.90;19.50;;;;;;;2.04;65.05;100097.97;115168;1202;25766;-57
2021/04/10 05:20:09;;;;;;;51.63;20.70;;;;;;;2.09;65.01;100095.48;115052;1200;23109;-55
2021/04/10 05:22:38;;;;;;;45.43;19.87;;;;;;;2.10;65.27;100110.03;115244;1202;23095;-57
2021/04/10 05:25:09;;;;;;;47.17;19.50;;;;;;;2.06;65.08;100110.11;115065;1203;23099;-57
2021/04/10 05:27:38;;;;;;;44.20;19.00;;;;;;;2.13;65.27;100111.95;115225;1202;27210;-55
2021/04/10 05:30:10;;;;;;;47.73;20.63;;;;;;;2.17;65.63;100105.14;115181;1202;28227;-58
2021/04/10 05:32:39;;;;;;;50.10;21.70;;;;;;;2.20;65.53;100101.55;115176;1202;23108;-57
2021/04/10 05:35:09;;;;;;;56.15;20.95;;;;;;;2.26;65.49;100099.06;114802;1202;23125;-58
2021/04/10 05:37:39;;;;;;;55.05;23.00;;;;;;;2.33;65.39;100105.22;115130;1203;23630;-58
2021/04/10 05:40:10;;;;;;;57.60;24.60;;;;;;;2.39;65.76;100097.99;115171;1202;23096;-58
2021/04/10 05:42:38;;;;;;;48.65;22.15;;;;;;;2.48;65.74;100093.88;115142;1202;23099;-58
2021/04/10 05:45:10;;;;;;;50.80;22.43;;;;;;;2.56;65.90;100089.75;114866;1200;23317;-59
2021/04/10 05:47:40;;;;;;;93.80;38.90;;;;;;;2.67;66.16;100082.78;115130;1202;26134;-59
2021/04/10 05:50:11;;;;;;;182.27;93.63;;;;;;;2.80;66.76;100080.91;115026;1200;23253;-57
2021/04/10 05:52:40;;;;;;;162.00;77.93;;;;;;;2.94;67.00;100085.28;115018;1200;23111;-57
2021/04/10 05:55:11;;;;;;;105.07;49.83;;;;;;;3.09;66.68;100089.25;115020;1202;26143;-57
2021/04/10 05:57:40;;;;;;;77.90;37.40;;;;;;;3.23;66.72;100091.66;115029;1203;23255;-58
2021/04/10 06:00:10;;;;;;;;;;;;;;;3.38;67.09;100087.33;115174;1204;23165;-57
2021/04/10 06:02:39;;;;;;;48.00;21.03;;;;;;;3.50;67.18;100092.13;115194;1203;21614;-56
2021/04/10 06:05:10;;;;;;;48.03;20.13;;;;;;;3.62;66.85;100098.94;115127;1202;23334;-59
2021/04/10 06:07:38;;;;;;;42.90;18.35;;;;;;;3.73;66.78;100094.66;115113;1202;26022;-59
2021/04/10 06:10:09;;;;;;;45.70;18.55;;;;;;;3.85;66.93;100098.67;114928;1199;23181;-58
2021/04/10 06:12:40;;;;;;;59.70;26.40;;;;;;;3.96;66.71;100094.41;115262;1200;26840;-58
2021/04/10 06:15:11;;;;;;;56.20;23.60;;;;;;;4.10;66.75;100090.45;114963;1202;27179;-57
2021/04/10 06:17:40;;;;;;;43.15;16.60;;;;;;;4.25;66.53;100093.58;115056;1202;23164;-57
2021/04/10 06:20:11;;;;;;;43.75;17.00;;;;;;;4.38;66.51;100089.64;115096;1202;23102;-57
2021/04/10 06:22:40;;;;;;;37.60;15.73;;;;;;;4.51;66.75;100092.41;115116;1202;23105;-58
2021/04/10 06:25:10;;;;;;;40.93;14.13;;;;;;;4.66;66.83;100091.52;115223;1202;23125;-58
2021/04/10 06:27:39;;;;;;;26.67;10.53;;;;;;;4.82;66.43;100096.94;115011;1200;23231;-66
2021/04/10 06:30:10;;;;;;;26.27;9.80;;;;;;;5.02;66.23;100098.69;115105;1200;23138;-61
2021/04/10 06:32:40;;;;;;;21.20;8.80;;;;;;;5.21;65.81;100103.98;115203;1200;23107;-61
2021/04/10 06:35:11;;;;;;;25.40;9.03;;;;;;;5.44;65.68;100098.04;115281;1202;24603;-62
2021/04/10 06:37:39;;;;;;;;;;;;;;;5.65;65.35;100091.77;115230;1205;23129;-61
2021/04/10 06:40:09;;;;;;;23.30;7.00;;;;;;;5.81;65.00;100095.59;115191;1202;25787;-61
2021/04/10 06:42:41;;;;;;;18.75;6.10;;;;;;;6.02;64.98;100108.72;115124;1202;27268;-60
2021/04/10 06:45:11;;;;;;;22.53;6.70;;;;;;;6.20;64.44;100106.06;115189;1202;23200;-58
2021/04/10 06:47:40;;;;;;;;;;;;;;;6.37;64.29;100107.41;115241;1205;24232;-57
2021/04/10 06:50:11;;;;;;;21.33;5.53;;;;;;;6.51;63.89;100102.09;115133;1202;21607;-56
2021/04/10 06:52:43;;;;;;;17.20;5.13;;;;;;;6.66;63.84;100105.09;115143;1200;26115;-63
2021/04/10 06:55:15;;;;;;;17.40;5.50;;;;;;;6.82;63.44;100092.96;115182;1202;23150;-59
2021/04/10 06:57:53;;;;;;;18.80;6.50;;;;;;;7.00;63.43;100098.56;115158;1200;23096;-59
2021/04/10 07:00:24;;;;;;;21.25;6.75;;;;;;;7.14;62.89;100090.44;115144;1200;23104;-59
2021/04/10 07:02:56;;;;;;;24.10;7.90;;;;;;;7.37;62.86;100082.78;115548;1202;23119;-59
2021/04/10 07:05:25;;;;;;;16.90;5.70;;;;;;;7.56;62.48;100089.88;115080;1202;23099;-58
2021/04/10 07:07:55;;;;;;;20.00;6.20;;;;;;;7.73;62.23;100083.57;115058;1202;23108;-59
2021/04/10 07:10:24;;;;;;;16.00;5.50;;;;;;;7.94;61.98;100090.98;115125;1202;23079;-57
2021/04/10 07:12:53;;;;;;;13.50;5.10;;;;;;;8.24;61.39;100086.43;115480;1198;23147;-59
2021/04/10 07:15:21;;;;;;;15.90;5.40;;;;;;;8.47;60.97;100085.02;118502;1199;25023;-56
2021/04/10 07:17:51;;;;;;;18.87;6.47;;;;;;;8.72;61.07;100081.83;118547;1198;22917;-56
2021/04/10 07:20:24;;;;;;;20.70;5.20;;;;;;;9.01;60.44;100076.44;118553;1199;22864;-57
2021/04/10 07:23:03;;;;;;;13.73;5.37;;;;;;;9.22;60.38;100080.19;118554;1198;24142;-57
2021/04/10 07:25:35;;;;;;;18.25;4.75;;;;;;;9.38;60.11;100079.77;118540;1198;22889;-57
2021/04/10 07:28:24;;;;;;;15.20;6.40;;;;;;;9.55;59.92;100078.88;118535;1199;22891;-57
2021/04/10 07:31:00;;;;;;;18.97;7.00;;;;;;;9.73;59.19;100077.95;118539;1199;22962;-57
2021/04/10 07:33:31;;;;;;;13.57;4.87;;;;;;;9.96;59.19;100074.34;118657;1202;22858;-58
2021/04/10 07:36:00;;;;;;;13.68;3.88;;;;;;;10.18;58.80;100071.98;118523;1199;23599;-57
2021/04/10 07:38:32;;;;;;;15.65;4.53;;;;;;;10.41;58.01;100061.97;118540;1198;22818;-58
2021/04/10 07:41:03;;;;;;;15.60;4.50;;;;;;;10.64;58.07;100075.05;118373;1199;22788;-59
2021/04/10 07:43:36;;;;;;;14.07;3.77;;;;;;;10.82;57.70;100069.23;114928;1202;27454;-59
2021/04/10 07:46:16;;;;;;;16.20;3.80;;;;;;;11.01;56.83;100064.95;115982;1202;23105;-56
2021/04/10 07:49:15;;;;;;;14.68;3.75;;;;;;;11.18;56.46;100065.18;115119;1202;27910;-57
2021/04/10 07:51:56;;;;;;;13.60;4.30;;;;;;;11.30;56.61;100056.46;114839;1202;23236;-57
2021/04/10 07:54:28;;;;;;;18.27;5.60;;;;;;;11.42;56.46;100065.77;114675;1205;23101;-57
2021/04/10 07:56:58;;;;;;;15.40;4.40;;;;;;;11.51;54.83;100065.61;114769;1205;23112;-58
2021/04/10 07:59:26;;;;;;;;;;;;;;;11.59;55.44;100060.36;115027;1208;23255;-59
2021/04/10 08:02:08;;;;;;;12.80;3.80;;;;;;;11.68;54.60;100065.84;114875;1203;24362;-58
2021/04/10 08:04:39;;;;;;;13.00;3.90;;;;;;;11.78;54.40;100068.00;114771;1203;25969;-60
2021/04/10 08:07:11;;;;;;;18.50;4.67;;;;;;;11.86;54.16;100066.31;114695;1205;23359;-65
2021/04/10 08:09:41;;;;;;;15.75;4.15;;;;;;;11.96;54.06;100073.28;114638;1202;23105;-57
2021/04/10 08:12:11;;;;;;;17.23;4.03;;;;;;;12.08;53.17;100076.98;114732;1205;23147;-58
2021/04/10 08:14:45;;;;;;;14.70;3.90;;;;;;;12.16;53.14;100075.28;114547;1205;23111;-62
2021/04/10 08:17:30;;;;;;;15.50;4.40;;;;;;;12.16;53.01;100072.48;114780;1205;27923;-58
2021/04/10 08:20:17;;;;;;;12.65;4.30;;;;;;;12.27;52.89;100080.22;114619;1203;27376;-59
2021/04/10 08:22:46;;;;;;;12.93;4.17;;;;;;;12.37;52.76;100071.16;114933;1200;23498;-59
2021/04/10 08:25:30;;;;;;;11.93;3.13;;;;;;;12.46;52.37;100075.79;114774;1205;23151;-59
2021/04/10 08:28:00;;;;;;;18.23;5.83;;;;;;;12.54;52.45;100069.25;115244;1198;27706;-59
2021/04/10 08:30:28;;;;;;;17.80;6.55;;;;;;;12.58;52.45;100072.59;115211;1202;25910;-59
2021/04/10 08:32:57;;;;;;;14.90;5.40;;;;;;;12.64;52.26;100067.80;114990;1201;23247;-59
2021/04/10 08:35:26;;;;;;;14.05;5.25;;;;;;;12.72;52.30;100068.13;115022;1202;23238;-58
2021/04/10 08:37:59;;;;;;;15.40;5.17;;;;;;;12.82;51.90;100075.08;115421;1200;24752;-57
2021/04/10 08:40:30;;;;;;;18.45;5.20;;;;;;;12.94;51.84;100063.45;115379;1199;23217;-59
2021/04/10 08:43:00;;;;;;;14.20;3.95;;;;;;;13.04;51.25;100064.03;115132;1202;23092;-59
2021/04/10 08:45:32;;;;;;;10.18;2.88;;;;;;;13.17;50.94;100063.61;115163;1202;23102;-58
2021/04/10 08:48:03;;;;;;;13.60;3.70;;;;;;;13.33;49.78;100074.14;115145;1202;23166;-59
2021/04/10 08:50:36;;;;;;;13.10;3.30;;;;;;;13.47;49.65;100068.34;115350;1201;23237;-59
2021/04/10 08:53:08;;;;;;;15.50;3.07;;;;;;;13.60;48.82;100065.86;115142;1202;24733;-59
2021/04/10 08:55:40;;;;;;;8.50;2.30;;;;;;;13.76;48.34;100073.56;115259;1199;24779;-59
2021/04/10 08:58:20;;;;;;;12.30;2.55;;;;;;;13.88;48.40;100071.58;115409;1202;26012;-58
2021/04/10 09:00:58;;;;;;;10.95;2.60;;;;;;;14.01;47.52;100069.04;115258;1199;26023;-59
2021/04/10 09:03:50;;;;;;;13.77;2.77;;;;;;;14.18;47.81;100069.84;115127;1200;23276;-59
2021/04/10 09:06:49;;;;;;;9.43;2.70;;;;;;;14.33;47.26;100078.84;115090;1202;23497;-59
2021/04/10 09:09:31;;;;;;;11.47;2.43;;;;;;;14.47;47.08;100077.05;115731;1162;23114;-58
2021/04/10 09:12:22;;;;;;;10.70;2.50;;;;;;;14.63;46.82;100087.52;115295;1202;23124;-57
2021/04/10 09:14:51;;;;;;;12.65;2.60;;;;;;;14.74;45.72;100086.76;115305;1202;23122;-55
2021/04/10 09:17:20;;;;;;;11.00;2.90;;;;;;;14.80;45.37;100081.90;115258;1202;23260;-59
2021/04/10 09:19:55;;;;;;;10.70;2.10;;;;;;;14.86;45.37;100083.44;115317;1202;23117;-54
2021/04/10 09:22:24;;;;;;;11.20;2.20;;;;;;;14.89;43.70;100081.64;115282;1202;23111;-57
2021/04/10 09:24:57;;;;;;;12.90;3.17;;;;;;;14.86;44.45;100089.05;115220;1202;23186;-57
2021/04/10 09:27:28;;;;;;;12.63;2.20;;;;;;;14.83;44.22;100090.09;115212;1202;23128;-55
2021/04/10 09:29:59;;;;;;;10.45;2.50;;;;;;;14.79;43.46;100091.63;115243;1202;23118;-57
2021/04/10 09:32:40;;;;;;;13.98;2.30;;;;;;;14.74;44.25;100095.96;115238;1200;23186;-56
2021/04/10 09:35:12;;;;;;;14.65;3.55;;;;;;;14.69;42.99;100085.48;115189;1202;23154;-58
2021/04/10 09:37:52;;;;;;;10.95;2.80;;;;;;;14.64;43.87;100089.06;115296;1200;26254;-58
2021/04/10 09:40:25;;;;;;;10.18;2.15;;;;;;;14.60;43.55;100088.56;115190;1199;24971;-56
2021/04/10 09:43:02;;;;;;;9.13;2.43;;;;;;;14.56;44.07;100088.83;115277;1199;23204;-56
2021/04/10 09:45:34;;;;;;;8.83;1.90;;;;;;;14.52;44.08;100088.28;115566;1199;24603;-58
2021/04/10 09:48:20;;;;;;;9.87;2.40;;;;;;;14.50;43.81;100090.84;115675;1200;23109;-58
2021/04/10 09:51:17;;;;;;;9.70;2.20;;;;;;;14.47;42.50;100089.06;115686;1199;23226;-57
2021/04/10 09:53:51;;;;;;;11.80;2.10;;;;;;;14.44;43.39;100098.49;115583;1199;27701;-59
2021/04/10 09:56:22;;;;;;;13.25;2.45;;;;;;;14.39;43.56;100090.84;115659;1199;23118;-58
2021/04/10 09:58:56;;;;;;;11.50;2.90;;;;;;;14.37;43.66;100101.82;115692;1199;27343;-58
2021/04/10 10:01:29;;;;;;;12.00;3.20;;;;;;;14.34;43.48;100093.63;115636;1200;23164;-59
2021/04/10 10:04:00;;;;;;;13.50;2.90;;;;;;;14.31;43.13;100091.85;115641;1199;28361;-58
2021/04/10 10:06:39;;;;;;;9.53;2.77;;;;;;;14.27;43.58;100094.89;115533;1198;24781;-58
2021/04/10 10:09:26;;;;;;;13.83;3.40;;;;;;;14.27;44.04;100092.08;115568;1199;23176;-58
2021/04/10 10:11:56;;;;;;;14.00;2.60;;;;;;;14.27;43.69;100094.89;115678;1199;23180;-57
2021/04/10 10:14:26;;;;;;;13.50;3.00;;;;;;;14.28;43.41;100088.02;115565;1199;23109;-58
2021/04/10 10:17:07;;;;;;;14.27;3.40;;;;;;;14.30;43.43;100090.30;115526;1199;23295;-59
2021/04/10 10:19:37;;;;;;;11.03;2.63;;;;;;;14.31;43.86;100091.85;116955;1199;23322;-60
2021/04/10 10:22:25;;;;;;;12.58;3.08;;;;;;;14.31;43.40;100089.05;115679;1200;26055;-57
2021/04/10 10:25:01;;;;;;;17.47;4.03;;;;;;;14.30;43.28;100095.92;115398;1200;27252;-58
2021/04/10 10:27:35;;;;;;;17.95;6.15;;;;;;;14.27;43.11;100092.08;115570;1200;23126;-58
2021/04/10 10:30:11;;;;;;;16.57;5.27;;;;;;;14.27;43.77;100085.69;115424;1202;23281;-59
2021/04/10 10:32:42;;;;;;;14.40;3.55;;;;;;;14.27;43.84;100088.50;115404;1200;23122;-59
2021/04/10 10:35:13;;;;;;;13.25;3.10;;;;;;;14.26;42.96;100089.76;115421;1200;23224;-60
2021/04/10 10:37:47;;;;;;;13.20;2.50;;;;;;;14.24;42.87;100090.27;115509;1202;23241;-60
2021/04/10 10:40:22;;;;;;;9.10;2.30;;;;;;;14.24;43.17;100097.92;115473;1200;23221;-58
2021/04/10 10:43:01;;;;;;;9.67;2.33;;;;;;;14.23;43.08;100096.41;115411;1200;24661;-58
2021/04/10 10:45:44;;;;;;;12.65;2.30;;;;;;;14.22;42.61;100103.28;115577;1200;27409;-58
2021/04/10 10:48:21;;;;;;;14.00;3.30;;;;;;;14.19;43.30;100107.12;117983;1200;25566;-59
2021/04/10 10:50:52;;;;;;;11.40;2.60;;;;;;;14.17;42.92;100107.63;115724;1199;27214;-61
2021/04/10 10:53:23;;;;;;;10.25;2.50;;;;;;;14.17;42.23;100106.86;115749;1199;24917;-61
2021/04/10 10:56:07;;;;;;;11.50;2.00;;;;;;;14.14;42.36;100107.86;115956;1199;23144;-61
2021/04/10 10:58:38;;;;;;;11.20;2.20;;;;;;;14.12;42.16;100105.56;115709;1200;23093;-61
2021/04/10 11:01:23;;;;;;;9.80;2.07;;;;;;;14.11;42.07;100118.05;115726;1200;23186;-61
2021/04/10 11:03:57;;;;;;;8.00;1.70;;;;;;;14.12;42.40;100127.25;115715;1199;23117;-56
2021/04/10 11:06:29;;;;;;;10.30;2.40;;;;;;;14.11;42.14;100123.67;115759;1200;23154;-56
2021/04/10 11:09:00;;;;;;;10.85;2.00;;;;;;;14.12;42.43;100130.06;115539;1199;23341;-58
2021/04/10 11:11:35;;;;;;;8.30;2.10;;;;;;;14.12;42.55;100127.25;115617;1202;23191;-58
2021/04/10 11:14:06;;;;;;;10.90;2.20;;;;;;;14.12;42.32;100136.45;115610;1200;23122;-58
2021/04/10 11:16:43;;;;;;;9.20;1.90;;;;;;;14.14;41.77;100141.55;115726;1198;24765;-58
2021/04/10 11:19:24;;;;;;;8.50;2.30;;;;;;;14.16;42.37;100136.19;115556;1200;27809;-57
2021/04/10 11:21:57;;;;;;;11.65;2.40;;;;;;;14.19;42.58;100141.58;115756;1200;23166;-56
2021/04/10 11:24:36;;;;;;;11.30;2.03;;;;;;;14.23;42.60;100149.75;115818;1200;23114;-55
2021/04/10 11:27:16;;;;;;;10.20;2.00;;;;;;;14.26;41.73;100143.88;115748;1200;23088;-58
2021/04/10 11:29:53;;;;;;;12.45;2.35;;;;;;;14.27;41.76;100148.23;115681;1199;24910;-59
2021/04/10 11:32:24;;;;;;;8.55;1.90;;;;;;;14.27;41.63;100156.66;115593;1200;23122;-59
2021/04/10 11:34:59;;;;;;;8.80;2.05;;;;;;;14.26;41.53;100151.53;115792;1198;23121;-58